sensor_id;sensor_type;location;lat;lon;timestamp;P1;durP1;ratioP1;P2;durP2;ratioP2
29934;SDS011;19905;53.370;-6.314;2022-08-03T00:01:37;10.98;;;2.80;;
29934;SDS011;19905;53.370;-6.314;2022-08-03T00:04:08;8.43;;;2.90;;
29934;SDS011;19905;53.370;-6.314;2022-08-03T00:06:41;7.60;;;2.40;;
29934;SDS011;19905;53.370;-6.314;2022-08-03T00:09:10;5.20;;;2.10;;
29934;SDS011;19905;53.370;-6.314;2022-08-03T00:11:39;3.35;;;1.80;;
29934;SDS011;19905;53.370;-6.314;2022-08-03T00:14:08;8.02;;;2.45;;
29934;SDS011;19905;53.370;-6.314;2022-08-03T00:16:38;8.38;;;2.35;;
29934;SDS011;19905;53.370;-6.314;2022-08-03T00:19:07;7.75;;;2.40;;
29934;SDS011;19905;53.370;-6.314;2022-08-03T00:21:37;8.73;;;2.67;;
29934;SDS011;19905;53.370;-6.314;2022-08-03T00:24:05;10.07;;;2.80;;
29934;SDS011;19905;53.370;-6.314;2022-08-03T00:26:37;7.32;;;2.65;;
29934;SDS011;19905;53.370;-6.314;2022-08-03T00:29:06;6.60;;;2.30;;
29934;SDS011;19905;53.370;-6.314;2022-08-03T00:31:34;9.63;;;2.58;;
29934;SDS011;19905;53.370;-6.314;2022-08-03T00:34:18;8.02;;;2.30;;
29934;SDS011;19905;53.370;-6.314;2022-08-03T00:37:09;6.78;;;2.13;;
29934;SDS011;19905;53.370;-6.314;2022-08-03T00:39:39;8.95;;;2.58;;
29934;SDS011;19905;53.370;-6.314;2022-08-03T00:42:09;8.85;;;2.35;;
29934;SDS011;19905;53.370;-6.314;2022-08-03T00:44:38;6.80;;;2.10;;
29934;SDS011;19905;53.370;-6.314;2022-08-03T00:47:09;8.90;;;2.47;;
29934;SDS011;19905;53.370;-6.314;2022-08-03T00:49:40;8.07;;;2.25;;
29934;SDS011;19905;53.370;-6.314;2022-08-03T00:52:10;6.35;;;2.40;;
29934;SDS011;19905;53.370;-6.314;2022-08-03T00:54:42;5.93;;;2.40;;
29934;SDS011;19905;53.370;-6.314;2022-08-03T00:57:11;6.38;;;2.35;;
29934;SDS011;19905;53.370;-6.314;2022-08-03T00:59:42;7.25;;;2.42;;
29934;SDS011;19905;53.370;-6.314;2022-08-03T01:02:17;6.50;;;2.60;;
29934;SDS011;19905;53.370;-6.314;2022-08-03T01:05:05;8.73;;;2.38;;
29934;SDS011;19905;53.370;-6.314;2022-08-03T01:07:43;7.57;;;2.53;;
29934;SDS011;19905;53.370;-6.314;2022-08-03T01:10:30;7.97;;;2.45;;
29934;SDS011;19905;53.370;-6.314;2022-08-03T01:13:08;8.35;;;2.53;;
29934;SDS011;19905;53.370;-6.314;2022-08-03T01:16:11;7.65;;;2.70;;
29934;SDS011;19905;53.370;-6.314;2022-08-03T01:18:51;6.45;;;2.67;;
29934;SDS011;19905;53.370;-6.314;2022-08-03T01:21:33;9.55;;;2.35;;
29934;SDS011;19905;53.370;-6.314;2022-08-03T01:24:21;8.95;;;2.45;;
29934;SDS011;19905;53.370;-6.314;2022-08-03T01:27:08;7.50;;;2.55;;
29934;SDS011;19905;53.370;-6.314;2022-08-03T01:29:57;9.60;;;2.58;;
29934;SDS011;19905;53.370;-6.314;2022-08-03T01:32:34;10.13;;;2.70;;
29934;SDS011;19905;53.370;-6.314;2022-08-03T01:35:27;9.25;;;2.70;;
29934;SDS011;19905;53.370;-6.314;2022-08-03T01:38:06;10.82;;;2.45;;
29934;SDS011;19905;53.370;-6.314;2022-08-03T01:40:42;11.40;;;2.72;;
29934;SDS011;19905;53.370;-6.314;2022-08-03T01:43:15;7.20;;;2.58;;
29934;SDS011;19905;53.370;-6.314;2022-08-03T01:46:09;7.82;;;2.35;;
29934;SDS011;19905;53.370;-6.314;2022-08-03T01:48:40;9.52;;;2.38;;
29934;SDS011;19905;53.370;-6.314;2022-08-03T01:51:11;6.80;;;2.47;;
29934;SDS011;19905;53.370;-6.314;2022-08-03T01:53:49;7.97;;;2.60;;
29934;SDS011;19905;53.370;-6.314;2022-08-03T01:56:22;8.02;;;2.67;;
29934;SDS011;19905;53.370;-6.314;2022-08-03T01:58:55;7.97;;;2.50;;
29934;SDS011;19905;53.370;-6.314;2022-08-03T02:01:29;6.70;;;2.15;;
29934;SDS011;19905;53.370;-6.314;2022-08-03T02:04:19;10.27;;;2.50;;
29934;SDS011;19905;53.370;-6.314;2022-08-03T02:06:51;9.57;;;2.58;;
29934;SDS011;19905;53.370;-6.314;2022-08-03T02:09:30;6.85;;;2.30;;
29934;SDS011;19905;53.370;-6.314;2022-08-03T02:12:03;9.43;;;2.40;;
29934;SDS011;19905;53.370;-6.314;2022-08-03T02:14:43;8.45;;;2.42;;
29934;SDS011;19905;53.370;-6.314;2022-08-03T02:17:15;8.35;;;2.47;;
29934;SDS011;19905;53.370;-6.314;2022-08-03T02:20:07;8.68;;;2.30;;
29934;SDS011;19905;53.370;-6.314;2022-08-03T02:22:40;7.35;;;2.65;;
29934;SDS011;19905;53.370;-6.314;2022-08-03T02:25:11;7.95;;;2.03;;
29934;SDS011;19905;53.370;-6.314;2022-08-03T02:27:43;7.38;;;2.40;;
29934;SDS011;19905;53.370;-6.314;2022-08-03T02:30:17;9.48;;;2.60;;
29934;SDS011;19905;53.370;-6.314;2022-08-03T02:32:50;7.75;;;2.63;;
29934;SDS011;19905;53.370;-6.314;2022-08-03T02:35:23;8.13;;;2.28;;
29934;SDS011;19905;53.370;-6.314;2022-08-03T02:37:55;6.82;;;2.40;;
29934;SDS011;19905;53.370;-6.314;2022-08-03T02:40:30;6.05;;;2.35;;
29934;SDS011;19905;53.370;-6.314;2022-08-03T02:43:24;6.43;;;2.13;;
29934;SDS011;19905;53.370;-6.314;2022-08-03T02:46:17;7.35;;;2.08;;
29934;SDS011;19905;53.370;-6.314;2022-08-03T02:48:50;9.07;;;2.20;;
29934;SDS011;19905;53.370;-6.314;2022-08-03T02:51:21;7.40;;;2.30;;
29934;SDS011;19905;53.370;-6.314;2022-08-03T02:53:54;6.10;;;2.17;;
29934;SDS011;19905;53.370;-6.314;2022-08-03T02:56:26;9.73;;;2.30;;
29934;SDS011;19905;53.370;-6.314;2022-08-03T02:59:00;7.90;;;2.00;;
29934;SDS011;19905;53.370;-6.314;2022-08-03T03:01:32;7.50;;;2.15;;
29934;SDS011;19905;53.370;-6.314;2022-08-03T03:04:02;8.82;;;1.80;;
29934;SDS011;19905;53.370;-6.314;2022-08-03T03:06:37;6.93;;;1.90;;
29934;SDS011;19905;53.370;-6.314;2022-08-03T03:09:10;11.45;;;2.20;;
29934;SDS011;19905;53.370;-6.314;2022-08-03T03:11:40;8.30;;;1.95;;
29934;SDS011;19905;53.370;-6.314;2022-08-03T03:14:11;8.23;;;1.90;;
29934;SDS011;19905;53.370;-6.314;2022-08-03T03:17:00;6.13;;;1.80;;
29934;SDS011;19905;53.370;-6.314;2022-08-03T03:19:37;11.65;;;2.00;;
29934;SDS011;19905;53.370;-6.314;2022-08-03T03:22:09;7.75;;;1.83;;
29934;SDS011;19905;53.370;-6.314;2022-08-03T03:24:40;6.82;;;1.90;;
29934;SDS011;19905;53.370;-6.314;2022-08-03T03:27:10;12.48;;;2.25;;
29934;SDS011;19905;53.370;-6.314;2022-08-03T03:29:46;7.50;;;1.83;;
29934;SDS011;19905;53.370;-6.314;2022-08-03T03:32:18;7.78;;;2.20;;
29934;SDS011;19905;53.370;-6.314;2022-08-03T03:34:49;7.70;;;1.90;;
29934;SDS011;19905;53.370;-6.314;2022-08-03T03:37:19;6.72;;;1.85;;
29934;SDS011;19905;53.370;-6.314;2022-08-03T03:39:48;6.80;;;2.00;;
29934;SDS011;19905;53.370;-6.314;2022-08-03T03:42:18;6.25;;;2.08;;
29934;SDS011;19905;53.370;-6.314;2022-08-03T03:44:49;9.82;;;2.00;;
29934;SDS011;19905;53.370;-6.314;2022-08-03T03:47:20;9.20;;;1.80;;
29934;SDS011;19905;53.370;-6.314;2022-08-03T03:50:00;10.88;;;1.85;;
29934;SDS011;19905;53.370;-6.314;2022-08-03T03:52:31;12.77;;;1.73;;
29934;SDS011;19905;53.370;-6.314;2022-08-03T03:55:01;11.43;;;1.88;;
29934;SDS011;19905;53.370;-6.314;2022-08-03T03:57:32;8.65;;;1.70;;
29934;SDS011;19905;53.370;-6.314;2022-08-03T04:00:10;8.70;;;1.95;;
29934;SDS011;19905;53.370;-6.314;2022-08-03T04:02:47;4.63;;;1.90;;
29934;SDS011;19905;53.370;-6.314;2022-08-03T04:05:20;9.25;;;1.98;;
29934;SDS011;19905;53.370;-6.314;2022-08-03T04:08:12;10.43;;;1.90;;
29934;SDS011;19905;53.370;-6.314;2022-08-03T04:11:06;5.95;;;1.98;;
29934;SDS011;19905;53.370;-6.314;2022-08-03T04:13:40;8.75;;;2.05;;
29934;SDS011;19905;53.370;-6.314;2022-08-03T04:16:18;8.00;;;1.95;;
29934;SDS011;19905;53.370;-6.314;2022-08-03T04:18:51;8.80;;;1.90;;
29934;SDS011;19905;53.370;-6.314;2022-08-03T04:24:20;8.50;;;2.00;;
29934;SDS011;19905;53.370;-6.314;2022-08-03T04:26:54;9.38;;;1.98;;
29934;SDS011;19905;53.370;-6.314;2022-08-03T04:32:00;5.72;;;1.77;;
29934;SDS011;19905;53.370;-6.314;2022-08-03T04:34:34;7.63;;;1.80;;
29934;SDS011;19905;53.370;-6.314;2022-08-03T04:37:28;8.45;;;1.90;;
29934;SDS011;19905;53.370;-6.314;2022-08-03T04:40:07;7.78;;;1.95;;
29934;SDS011;19905;53.370;-6.314;2022-08-03T04:42:42;7.88;;;1.70;;
29934;SDS011;19905;53.370;-6.314;2022-08-03T04:45:12;9.25;;;1.80;;
29934;SDS011;19905;53.370;-6.314;2022-08-03T04:47:44;9.15;;;1.92;;
29934;SDS011;19905;53.370;-6.314;2022-08-03T04:52:49;8.32;;;1.80;;
29934;SDS011;19905;53.370;-6.314;2022-08-03T04:55:30;8.75;;;1.70;;
29934;SDS011;19905;53.370;-6.314;2022-08-03T04:58:01;11.32;;;2.00;;
29934;SDS011;19905;53.370;-6.314;2022-08-03T05:00:45;12.88;;;1.77;;
29934;SDS011;19905;53.370;-6.314;2022-08-03T05:03:19;11.00;;;2.20;;
29934;SDS011;19905;53.370;-6.314;2022-08-03T05:05:56;9.70;;;1.80;;
29934;SDS011;19905;53.370;-6.314;2022-08-03T05:11:12;9.63;;;2.03;;
29934;SDS011;19905;53.370;-6.314;2022-08-03T05:13:43;10.63;;;2.17;;
29934;SDS011;19905;53.370;-6.314;2022-08-03T05:16:19;10.02;;;1.70;;
29934;SDS011;19905;53.370;-6.314;2022-08-03T05:18:49;10.27;;;1.75;;
29934;SDS011;19905;53.370;-6.314;2022-08-03T05:21:18;9.32;;;1.83;;
29934;SDS011;19905;53.370;-6.314;2022-08-03T05:23:50;10.27;;;2.00;;
29934;SDS011;19905;53.370;-6.314;2022-08-03T05:26:20;9.05;;;1.77;;
29934;SDS011;19905;53.370;-6.314;2022-08-03T05:28:54;6.90;;;1.63;;
29934;SDS011;19905;53.370;-6.314;2022-08-03T05:31:24;8.85;;;1.80;;
29934;SDS011;19905;53.370;-6.314;2022-08-03T05:33:52;8.10;;;1.90;;
29934;SDS011;19905;53.370;-6.314;2022-08-03T05:36:23;9.13;;;1.80;;
29934;SDS011;19905;53.370;-6.314;2022-08-03T05:39:08;8.48;;;1.67;;
29934;SDS011;19905;53.370;-6.314;2022-08-03T05:41:36;10.60;;;1.90;;
29934;SDS011;19905;53.370;-6.314;2022-08-03T05:46:38;10.25;;;1.90;;
29934;SDS011;19905;53.370;-6.314;2022-08-03T05:49:08;12.05;;;1.85;;
29934;SDS011;19905;53.370;-6.314;2022-08-03T05:51:44;12.23;;;2.15;;
29934;SDS011;19905;53.370;-6.314;2022-08-03T05:54:34;11.48;;;2.30;;
29934;SDS011;19905;53.370;-6.314;2022-08-03T05:57:29;12.38;;;2.22;;
29934;SDS011;19905;53.370;-6.314;2022-08-03T06:00:03;15.43;;;2.45;;
29934;SDS011;19905;53.370;-6.314;2022-08-03T06:02:37;13.25;;;1.95;;
29934;SDS011;19905;53.370;-6.314;2022-08-03T06:05:08;12.85;;;2.33;;
29934;SDS011;19905;53.370;-6.314;2022-08-03T06:07:37;11.57;;;2.20;;
29934;SDS011;19905;53.370;-6.314;2022-08-03T06:10:10;14.05;;;2.40;;
29934;SDS011;19905;53.370;-6.314;2022-08-03T06:13:01;14.30;;;2.00;;
29934;SDS011;19905;53.370;-6.314;2022-08-03T06:15:37;14.43;;;2.25;;
29934;SDS011;19905;53.370;-6.314;2022-08-03T06:18:05;11.75;;;2.50;;
29934;SDS011;19905;53.370;-6.314;2022-08-03T06:20:34;12.05;;;2.33;;
29934;SDS011;19905;53.370;-6.314;2022-08-03T06:23:39;12.40;;;2.35;;
29934;SDS011;19905;53.370;-6.314;2022-08-03T06:26:25;13.48;;;2.30;;
29934;SDS011;19905;53.370;-6.314;2022-08-03T06:28:55;14.50;;;2.15;;
29934;SDS011;19905;53.370;-6.314;2022-08-03T06:31:25;13.40;;;2.05;;
29934;SDS011;19905;53.370;-6.314;2022-08-03T06:34:01;13.52;;;2.20;;
29934;SDS011;19905;53.370;-6.314;2022-08-03T06:37:07;14.00;;;2.25;;
29934;SDS011;19905;53.370;-6.314;2022-08-03T06:39:35;11.57;;;2.10;;
29934;SDS011;19905;53.370;-6.314;2022-08-03T06:42:05;8.88;;;1.73;;
29934;SDS011;19905;53.370;-6.314;2022-08-03T06:44:55;9.52;;;1.90;;
29934;SDS011;19905;53.370;-6.314;2022-08-03T06:47:25;10.82;;;2.00;;
29934;SDS011;19905;53.370;-6.314;2022-08-03T06:49:53;13.68;;;2.00;;
29934;SDS011;19905;53.370;-6.314;2022-08-03T06:52:39;7.82;;;1.85;;
29934;SDS011;19905;53.370;-6.314;2022-08-03T06:55:09;10.75;;;2.20;;
29934;SDS011;19905;53.370;-6.314;2022-08-03T06:57:39;11.43;;;1.88;;
29934;SDS011;19905;53.370;-6.314;2022-08-03T07:00:09;13.25;;;2.20;;
29934;SDS011;19905;53.370;-6.314;2022-08-03T07:02:58;10.45;;;2.08;;
29934;SDS011;19905;53.370;-6.314;2022-08-03T07:05:27;13.23;;;2.35;;
29934;SDS011;19905;53.370;-6.314;2022-08-03T07:07:56;14.00;;;2.42;;
29934;SDS011;19905;53.370;-6.314;2022-08-03T07:10:27;14.63;;;2.20;;
29934;SDS011;19905;53.370;-6.314;2022-08-03T07:12:57;12.68;;;2.35;;
29934;SDS011;19905;53.370;-6.314;2022-08-03T07:15:26;15.52;;;2.47;;
29934;SDS011;19905;53.370;-6.314;2022-08-03T07:18:17;14.50;;;2.40;;
29934;SDS011;19905;53.370;-6.314;2022-08-03T07:20:55;18.63;;;2.60;;
29934;SDS011;19905;53.370;-6.314;2022-08-03T07:23:23;17.77;;;2.63;;
29934;SDS011;19905;53.370;-6.314;2022-08-03T07:25:52;17.33;;;2.38;;
29934;SDS011;19905;53.370;-6.314;2022-08-03T07:28:22;15.27;;;2.35;;
29934;SDS011;19905;53.370;-6.314;2022-08-03T07:30:51;13.43;;;2.10;;
29934;SDS011;19905;53.370;-6.314;2022-08-03T07:33:19;19.58;;;2.63;;
29934;SDS011;19905;53.370;-6.314;2022-08-03T07:35:47;18.30;;;2.30;;
29934;SDS011;19905;53.370;-6.314;2022-08-03T07:38:17;15.27;;;2.42;;
29934;SDS011;19905;53.370;-6.314;2022-08-03T07:40:46;20.40;;;2.58;;
29934;SDS011;19905;53.370;-6.314;2022-08-03T07:43:15;17.58;;;2.30;;
29934;SDS011;19905;53.370;-6.314;2022-08-03T07:45:45;16.60;;;2.45;;
29934;SDS011;19905;53.370;-6.314;2022-08-03T07:48:34;17.02;;;2.45;;
29934;SDS011;19905;53.370;-6.314;2022-08-03T07:51:04;17.15;;;2.70;;
29934;SDS011;19905;53.370;-6.314;2022-08-03T07:53:33;14.07;;;2.50;;
29934;SDS011;19905;53.370;-6.314;2022-08-03T07:56:12;11.20;;;2.10;;
29934;SDS011;19905;53.370;-6.314;2022-08-03T07:58:42;12.85;;;2.60;;
29934;SDS011;19905;53.370;-6.314;2022-08-03T08:01:12;16.05;;;2.13;;
29934;SDS011;19905;53.370;-6.314;2022-08-03T08:03:40;13.60;;;2.17;;
29934;SDS011;19905;53.370;-6.314;2022-08-03T08:06:20;13.57;;;1.88;;
29934;SDS011;19905;53.370;-6.314;2022-08-03T08:08:49;9.77;;;2.10;;
29934;SDS011;19905;53.370;-6.314;2022-08-03T08:11:18;12.10;;;2.38;;
29934;SDS011;19905;53.370;-6.314;2022-08-03T08:13:48;18.50;;;2.78;;
29934;SDS011;19905;53.370;-6.314;2022-08-03T08:16:22;13.05;;;2.30;;
29934;SDS011;19905;53.370;-6.314;2022-08-03T08:18:51;14.75;;;2.00;;
29934;SDS011;19905;53.370;-6.314;2022-08-03T08:21:21;13.23;;;2.13;;
29934;SDS011;19905;53.370;-6.314;2022-08-03T08:23:52;14.73;;;2.13;;
29934;SDS011;19905;53.370;-6.314;2022-08-03T08:26:24;8.48;;;1.65;;
29934;SDS011;19905;53.370;-6.314;2022-08-03T08:28:53;12.50;;;1.85;;
29934;SDS011;19905;53.370;-6.314;2022-08-03T08:31:23;12.48;;;2.00;;
29934;SDS011;19905;53.370;-6.314;2022-08-03T08:33:53;12.68;;;2.13;;
29934;SDS011;19905;53.370;-6.314;2022-08-03T08:36:30;9.75;;;1.90;;
29934;SDS011;19905;53.370;-6.314;2022-08-03T08:38:59;14.50;;;1.98;;
29934;SDS011;19905;53.370;-6.314;2022-08-03T08:41:29;10.05;;;1.73;;
29934;SDS011;19905;53.370;-6.314;2022-08-03T08:44:00;9.75;;;1.60;;
29934;SDS011;19905;53.370;-6.314;2022-08-03T08:46:31;11.55;;;1.60;;
29934;SDS011;19905;53.370;-6.314;2022-08-03T08:49:00;11.10;;;1.73;;
29934;SDS011;19905;53.370;-6.314;2022-08-03T08:51:49;11.93;;;1.92;;
29934;SDS011;19905;53.370;-6.314;2022-08-03T08:54:26;9.02;;;1.65;;
29934;SDS011;19905;53.370;-6.314;2022-08-03T08:56:56;9.95;;;1.52;;
29934;SDS011;19905;53.370;-6.314;2022-08-03T08:59:49;7.20;;;1.42;;
29934;SDS011;19905;53.370;-6.314;2022-08-03T09:02:24;12.65;;;1.80;;
29934;SDS011;19905;53.370;-6.314;2022-08-03T09:04:56;9.20;;;1.45;;
29934;SDS011;19905;53.370;-6.314;2022-08-03T09:07:32;16.38;;;2.20;;
29934;SDS011;19905;53.370;-6.314;2022-08-03T09:10:01;11.63;;;1.80;;
29934;SDS011;19905;53.370;-6.314;2022-08-03T09:12:39;10.30;;;1.48;;
29934;SDS011;19905;53.370;-6.314;2022-08-03T09:15:17;10.55;;;1.77;;
29934;SDS011;19905;53.370;-6.314;2022-08-03T09:17:49;7.82;;;1.58;;
29934;SDS011;19905;53.370;-6.314;2022-08-03T09:20:20;8.85;;;1.58;;
29934;SDS011;19905;53.370;-6.314;2022-08-03T09:22:52;6.75;;;1.20;;
29934;SDS011;19905;53.370;-6.314;2022-08-03T09:25:25;7.65;;;1.30;;
29934;SDS011;19905;53.370;-6.314;2022-08-03T09:28:05;6.78;;;1.15;;
29934;SDS011;19905;53.370;-6.314;2022-08-03T09:31:16;9.82;;;1.50;;
29934;SDS011;19905;53.370;-6.314;2022-08-03T09:33:51;7.03;;;1.20;;
29934;SDS011;19905;53.370;-6.314;2022-08-03T09:36:36;7.68;;;1.40;;
29934;SDS011;19905;53.370;-6.314;2022-08-03T09:39:06;7.90;;;1.30;;
29934;SDS011;19905;53.370;-6.314;2022-08-03T09:41:38;6.25;;;1.10;;
29934;SDS011;19905;53.370;-6.314;2022-08-03T09:44:10;7.13;;;1.00;;
29934;SDS011;19905;53.370;-6.314;2022-08-03T09:46:51;4.63;;;1.00;;
29934;SDS011;19905;53.370;-6.314;2022-08-03T09:52:12;9.25;;;1.10;;
29934;SDS011;19905;53.370;-6.314;2022-08-03T09:54:59;4.20;;;0.90;;
29934;SDS011;19905;53.370;-6.314;2022-08-03T09:57:28;4.25;;;1.00;;
29934;SDS011;19905;53.370;-6.314;2022-08-03T10:00:05;8.43;;;1.20;;
29934;SDS011;19905;53.370;-6.314;2022-08-03T10:02:37;6.30;;;1.20;;
29934;SDS011;19905;53.370;-6.314;2022-08-03T10:05:09;8.00;;;1.10;;
29934;SDS011;19905;53.370;-6.314;2022-08-03T10:07:46;7.68;;;1.20;;
29934;SDS011;19905;53.370;-6.314;2022-08-03T10:10:16;6.07;;;1.40;;
29934;SDS011;19905;53.370;-6.314;2022-08-03T10:12:57;8.60;;;1.50;;
29934;SDS011;19905;53.370;-6.314;2022-08-03T10:15:27;5.50;;;1.20;;
29934;SDS011;19905;53.370;-6.314;2022-08-03T10:18:16;9.15;;;1.40;;
29934;SDS011;19905;53.370;-6.314;2022-08-03T10:21:09;5.60;;;1.13;;
29934;SDS011;19905;53.370;-6.314;2022-08-03T10:23:43;9.35;;;1.50;;
29934;SDS011;19905;53.370;-6.314;2022-08-03T10:26:15;7.25;;;1.25;;
29934;SDS011;19905;53.370;-6.314;2022-08-03T10:28:51;6.15;;;1.20;;
29934;SDS011;19905;53.370;-6.314;2022-08-03T10:31:21;7.70;;;1.10;;
29934;SDS011;19905;53.370;-6.314;2022-08-03T10:33:51;9.90;;;1.48;;
29934;SDS011;19905;53.370;-6.314;2022-08-03T10:36:29;4.18;;;1.10;;
29934;SDS011;19905;53.370;-6.314;2022-08-03T10:39:01;6.53;;;1.50;;
29934;SDS011;19905;53.370;-6.314;2022-08-03T10:41:41;7.07;;;1.02;;
29934;SDS011;19905;53.370;-6.314;2022-08-03T10:44:16;6.20;;;1.10;;
29934;SDS011;19905;53.370;-6.314;2022-08-03T10:46:46;6.75;;;1.25;;
29934;SDS011;19905;53.370;-6.314;2022-08-03T10:49:17;5.60;;;1.00;;
29934;SDS011;19905;53.370;-6.314;2022-08-03T10:52:02;4.88;;;1.00;;
29934;SDS011;19905;53.370;-6.314;2022-08-03T10:54:59;6.28;;;1.15;;
29934;SDS011;19905;53.370;-6.314;2022-08-03T10:57:48;6.72;;;1.17;;
29934;SDS011;19905;53.370;-6.314;2022-08-03T11:00:26;5.53;;;1.10;;
29934;SDS011;19905;53.370;-6.314;2022-08-03T11:03:04;8.35;;;1.17;;
29934;SDS011;19905;53.370;-6.314;2022-08-03T11:05:40;4.15;;;0.70;;
29934;SDS011;19905;53.370;-6.314;2022-08-03T11:08:18;3.97;;;1.00;;
29934;SDS011;19905;53.370;-6.314;2022-08-03T11:10:48;2.35;;;0.52;;
29934;SDS011;19905;53.370;-6.314;2022-08-03T11:13:18;3.35;;;0.80;;
29934;SDS011;19905;53.370;-6.314;2022-08-03T11:15:51;2.40;;;0.60;;
29934;SDS011;19905;53.370;-6.314;2022-08-03T11:18:28;3.70;;;0.60;;
29934;SDS011;19905;53.370;-6.314;2022-08-03T11:20:57;3.63;;;0.63;;
29934;SDS011;19905;53.370;-6.314;2022-08-03T11:23:41;1.52;;;0.50;;
29934;SDS011;19905;53.370;-6.314;2022-08-03T11:26:31;1.77;;;0.50;;
29934;SDS011;19905;53.370;-6.314;2022-08-03T11:31:55;3.45;;;0.70;;
29934;SDS011;19905;53.370;-6.314;2022-08-03T11:34:24;4.30;;;0.55;;
29934;SDS011;19905;53.370;-6.314;2022-08-03T11:39:58;3.30;;;0.68;;
29934;SDS011;19905;53.370;-6.314;2022-08-03T11:42:37;2.05;;;0.70;;
29934;SDS011;19905;53.370;-6.314;2022-08-03T11:45:13;3.58;;;0.70;;
29934;SDS011;19905;53.370;-6.314;2022-08-03T11:47:44;3.78;;;0.88;;
29934;SDS011;19905;53.370;-6.314;2022-08-03T11:50:36;3.95;;;0.63;;
29934;SDS011;19905;53.370;-6.314;2022-08-03T11:53:05;2.78;;;0.88;;
29934;SDS011;19905;53.370;-6.314;2022-08-03T11:55:36;4.03;;;0.90;;
29934;SDS011;19905;53.370;-6.314;2022-08-03T11:58:07;4.05;;;0.90;;
29934;SDS011;19905;53.370;-6.314;2022-08-03T12:01:05;2.10;;;0.60;;
29934;SDS011;19905;53.370;-6.314;2022-08-03T12:03:38;1.63;;;0.70;;
29934;SDS011;19905;53.370;-6.314;2022-08-03T12:06:08;5.03;;;1.10;;
29934;SDS011;19905;53.370;-6.314;2022-08-03T12:08:57;2.00;;;0.60;;
29934;SDS011;19905;53.370;-6.314;2022-08-03T12:11:27;3.53;;;0.60;;
29934;SDS011;19905;53.370;-6.314;2022-08-03T12:13:57;3.08;;;0.63;;
29934;SDS011;19905;53.370;-6.314;2022-08-03T12:16:45;3.45;;;0.80;;
29934;SDS011;19905;53.370;-6.314;2022-08-03T12:19:15;2.33;;;0.60;;
29934;SDS011;19905;53.370;-6.314;2022-08-03T12:21:44;2.75;;;0.77;;
29934;SDS011;19905;53.370;-6.314;2022-08-03T12:24:22;3.03;;;0.57;;
29934;SDS011;19905;53.370;-6.314;2022-08-03T12:26:55;3.88;;;0.75;;
29934;SDS011;19905;53.370;-6.314;2022-08-03T12:29:25;2.45;;;0.70;;
29934;SDS011;19905;53.370;-6.314;2022-08-03T12:31:54;3.15;;;0.73;;
29934;SDS011;19905;53.370;-6.314;2022-08-03T12:34:23;3.20;;;0.82;;
29934;SDS011;19905;53.370;-6.314;2022-08-03T12:37:13;2.40;;;0.52;;
29934;SDS011;19905;53.370;-6.314;2022-08-03T12:39:48;1.90;;;0.50;;
29934;SDS011;19905;53.370;-6.314;2022-08-03T12:42:32;4.80;;;0.65;;
29934;SDS011;19905;53.370;-6.314;2022-08-03T12:45:18;1.77;;;0.40;;
29934;SDS011;19905;53.370;-6.314;2022-08-03T12:47:50;1.20;;;0.55;;
29934;SDS011;19905;53.370;-6.314;2022-08-03T12:50:23;1.27;;;0.57;;
29934;SDS011;19905;53.370;-6.314;2022-08-03T12:52:54;2.78;;;0.50;;
29934;SDS011;19905;53.370;-6.314;2022-08-03T12:55:24;2.10;;;0.52;;
29934;SDS011;19905;53.370;-6.314;2022-08-03T12:58:29;3.75;;;0.85;;
29934;SDS011;19905;53.370;-6.314;2022-08-03T13:01:01;1.73;;;0.60;;
29934;SDS011;19905;53.370;-6.314;2022-08-03T13:03:39;1.77;;;0.60;;
29934;SDS011;19905;53.370;-6.314;2022-08-03T13:06:15;2.20;;;0.45;;
29934;SDS011;19905;53.370;-6.314;2022-08-03T13:08:45;0.82;;;0.50;;
29934;SDS011;19905;53.370;-6.314;2022-08-03T13:11:21;1.95;;;0.40;;
29934;SDS011;19905;53.370;-6.314;2022-08-03T13:14:12;1.83;;;0.60;;
29934;SDS011;19905;53.370;-6.314;2022-08-03T13:16:47;3.03;;;0.60;;
29934;SDS011;19905;53.370;-6.314;2022-08-03T13:19:16;2.45;;;0.70;;
29934;SDS011;19905;53.370;-6.314;2022-08-03T13:21:44;2.05;;;0.60;;
29934;SDS011;19905;53.370;-6.314;2022-08-03T13:24:30;3.67;;;0.70;;
29934;SDS011;19905;53.370;-6.314;2022-08-03T13:27:00;3.53;;;0.80;;
29934;SDS011;19905;53.370;-6.314;2022-08-03T13:29:52;1.73;;;0.70;;
29934;SDS011;19905;53.370;-6.314;2022-08-03T13:32:22;3.38;;;0.60;;
29934;SDS011;19905;53.370;-6.314;2022-08-03T13:34:50;1.75;;;0.68;;
29934;SDS011;19905;53.370;-6.314;2022-08-03T13:37:19;3.03;;;0.70;;
29934;SDS011;19905;53.370;-6.314;2022-08-03T13:39:48;2.42;;;0.57;;
29934;SDS011;19905;53.370;-6.314;2022-08-03T13:42:27;4.10;;;1.00;;
29934;SDS011;19905;53.370;-6.314;2022-08-03T13:44:59;1.92;;;0.60;;
29934;SDS011;19905;53.370;-6.314;2022-08-03T13:47:28;2.85;;;0.80;;
29934;SDS011;19905;53.370;-6.314;2022-08-03T13:49:56;2.13;;;0.50;;
29934;SDS011;19905;53.370;-6.314;2022-08-03T13:52:29;1.52;;;0.40;;
29934;SDS011;19905;53.370;-6.314;2022-08-03T13:54:58;1.83;;;0.70;;
29934;SDS011;19905;53.370;-6.314;2022-08-03T13:57:27;1.13;;;0.40;;
29934;SDS011;19905;53.370;-6.314;2022-08-03T14:00:18;1.25;;;0.60;;
29934;SDS011;19905;53.370;-6.314;2022-08-03T14:02:54;2.22;;;0.55;;
29934;SDS011;19905;53.370;-6.314;2022-08-03T14:05:38;2.33;;;0.60;;
29934;SDS011;19905;53.370;-6.314;2022-08-03T14:08:06;3.25;;;0.68;;
29934;SDS011;19905;53.370;-6.314;2022-08-03T14:10:36;2.42;;;0.50;;
29934;SDS011;19905;53.370;-6.314;2022-08-03T14:13:06;1.80;;;0.60;;
29934;SDS011;19905;53.370;-6.314;2022-08-03T14:15:37;1.85;;;0.90;;
29934;SDS011;19905;53.370;-6.314;2022-08-03T14:18:05;1.48;;;0.70;;
29934;SDS011;19905;53.370;-6.314;2022-08-03T14:20:41;1.52;;;0.65;;
29934;SDS011;19905;53.370;-6.314;2022-08-03T14:23:17;3.30;;;0.90;;
29934;SDS011;19905;53.370;-6.314;2022-08-03T14:25:47;3.17;;;0.70;;
29934;SDS011;19905;53.370;-6.314;2022-08-03T14:28:19;4.97;;;1.10;;
29934;SDS011;19905;53.370;-6.314;2022-08-03T14:30:51;2.13;;;0.80;;
29934;SDS011;19905;53.370;-6.314;2022-08-03T14:33:21;2.05;;;0.47;;
29934;SDS011;19905;53.370;-6.314;2022-08-03T14:36:00;1.25;;;0.60;;
29934;SDS011;19905;53.370;-6.314;2022-08-03T14:38:30;1.58;;;0.38;;
29934;SDS011;19905;53.370;-6.314;2022-08-03T14:40:58;2.50;;;0.85;;
29934;SDS011;19905;53.370;-6.314;2022-08-03T14:43:27;3.05;;;0.50;;
29934;SDS011;19905;53.370;-6.314;2022-08-03T14:46:01;1.63;;;0.50;;
29934;SDS011;19905;53.370;-6.314;2022-08-03T14:48:29;1.98;;;0.60;;
29934;SDS011;19905;53.370;-6.314;2022-08-03T14:51:18;1.45;;;0.60;;
29934;SDS011;19905;53.370;-6.314;2022-08-03T14:53:46;2.58;;;0.85;;
29934;SDS011;19905;53.370;-6.314;2022-08-03T14:56:15;5.70;;;0.85;;
29934;SDS011;19905;53.370;-6.314;2022-08-03T14:58:44;4.47;;;0.70;;
29934;SDS011;19905;53.370;-6.314;2022-08-03T15:01:14;1.63;;;0.60;;
29934;SDS011;19905;53.370;-6.314;2022-08-03T15:04:02;3.00;;;0.73;;
29934;SDS011;19905;53.370;-6.314;2022-08-03T15:06:32;3.97;;;0.82;;
29934;SDS011;19905;53.370;-6.314;2022-08-03T15:09:01;3.75;;;0.88;;
29934;SDS011;19905;53.370;-6.314;2022-08-03T15:11:50;2.35;;;0.60;;
29934;SDS011;19905;53.370;-6.314;2022-08-03T15:14:19;1.33;;;0.50;;
29934;SDS011;19905;53.370;-6.314;2022-08-03T15:17:00;2.60;;;0.60;;
29934;SDS011;19905;53.370;-6.314;2022-08-03T15:19:28;2.33;;;0.80;;
29934;SDS011;19905;53.370;-6.314;2022-08-03T15:22:17;2.85;;;0.85;;
29934;SDS011;19905;53.370;-6.314;2022-08-03T15:24:51;2.30;;;0.60;;
29934;SDS011;19905;53.370;-6.314;2022-08-03T15:27:21;2.03;;;0.77;;
29934;SDS011;19905;53.370;-6.314;2022-08-03T15:29:50;2.67;;;0.70;;
29934;SDS011;19905;53.370;-6.314;2022-08-03T15:32:36;4.68;;;0.70;;
29934;SDS011;19905;53.370;-6.314;2022-08-03T15:35:05;3.45;;;0.70;;
29934;SDS011;19905;53.370;-6.314;2022-08-03T15:37:35;2.80;;;0.77;;
29934;SDS011;19905;53.370;-6.314;2022-08-03T15:40:04;3.33;;;0.70;;